Time;durP1;ratioP1;P1;durP2;ratioP2;P2;SDS_P1;SDS_P2;PMS_P1;PMS_P2;Temp;Humidity;BMP_temperature;BMP_pressure;BME280_temperature;BME280_humidity;BME280_pressure;Samples;Min_cycle;Max_cycle;Signal;HPM_P1;HPM_P2
2022/06/11 00:01:24;;;;;;;19.48;5.30;;;15.40;99.90;;;;;;5032299;28;20395;-80
2022/06/11 00:03:52;;;;;;;19.58;5.55;;;15.40;99.90;;;;;;5033653;28;20509;-80
2022/06/11 00:06:19;;;;;;;16.63;4.97;;;15.30;99.90;;;;;;5033751;28;20052;-80
2022/06/11 00:08:46;;;;;;;17.42;4.88;;;15.30;99.90;;;;;;5033615;28;20443;-80
2022/06/11 00:11:13;;;;;;;17.58;4.38;;;15.30;99.90;;;;;;5032419;28;20085;-80
2022/06/11 00:13:41;;;;;;;27.00;5.10;;;15.30;99.90;;;;;;5032173;28;20513;-80
2022/06/11 00:16:08;;;;;;;23.17;5.50;;;15.20;99.90;;;;;;5033661;28;20112;-80
2022/06/11 00:18:36;;;;;;;20.13;4.57;;;15.20;99.90;;;;;;5033534;28;20037;-80
2022/06/11 00:21:03;;;;;;;25.77;5.85;;;15.20;99.90;;;;;;5032559;28;20037;-80
2022/06/11 00:23:28;;;;;;;22.75;4.93;;;15.20;99.90;;;;;;5033565;28;20053;-80
2022/06/11 00:25:55;;;;;;;19.55;4.75;;;15.10;99.90;;;;;;5032233;28;20041;-80
2022/06/11 00:28:21;;;;;;;26.67;5.00;;;15.10;99.90;;;;;;5032314;28;20470;-80
2022/06/11 00:30:47;;;;;;;23.20;4.70;;;15.00;99.90;;;;;;5032104;28;20053;-80
2022/06/11 00:33:13;;;;;;;26.95;4.88;;;15.00;99.90;;;;;;5032408;28;20523;-80
2022/06/11 00:35:40;;;;;;;21.80;4.93;;;15.00;99.90;;;;;;5033390;28;20045;-80
2022/06/11 00:38:07;;;;;;;17.58;4.43;;;15.00;99.90;;;;;;5033062;28;20115;-80
2022/06/11 00:40:37;;;;;;;22.55;5.45;;;15.00;99.90;;;;;;5032103;28;20046;-80
2022/06/11 00:43:06;;;;;;;19.83;4.53;;;14.90;99.90;;;;;;5033182;28;20385;-80
2022/06/11 00:45:47;;;;;;;24.98;5.05;;;14.90;99.90;;;;;;5033404;28;20092;-80
2022/06/11 00:48:33;;;;;;;23.33;4.68;;;14.90;99.90;;;;;;5033356;28;20128;-80
2022/06/11 00:51:03;;;;;;;19.92;4.50;;;14.90;99.90;;;;;;5033343;28;20045;-80
2022/06/11 00:53:34;;;;;;;27.15;5.82;;;14.90;99.90;;;;;;5033189;28;20050;-80
2022/06/11 00:56:04;;;;;;;33.05;7.43;;;14.80;99.90;;;;;;5033506;28;20041;-80
2022/06/11 00:58:35;;;;;;;19.48;5.47;;;14.80;99.90;;;;;;5033195;28;20041;-80
2022/06/11 01:01:01;;;;;;;23.38;5.90;;;14.80;99.90;;;;;;5032242;28;20128;-80
2022/06/11 01:03:37;;;;;;;19.65;4.40;;;14.80;99.90;;;;;;5033099;28;20488;-80
2022/06/11 01:06:32;;;;;;;28.45;5.57;;;14.80;99.90;;;;;;5032051;28;20107;-80
2022/06/11 01:09:01;;;;;;;18.30;4.05;;;14.70;99.90;;;;;;5033283;28;20041;-80
2022/06/11 01:12:06;;;;;;;35.35;5.95;;;14.70;99.90;;;;;;5033153;28;20044;-80
2022/06/11 01:14:56;;;;;;;29.15;5.38;;;14.60;99.90;;;;;;5034375;28;20092;-80
2022/06/11 01:17:37;;;;;;;28.00;5.90;;;14.70;99.90;;;;;;5036804;28;20085;-80
2022/06/11 01:20:03;;;;;;;24.40;5.65;;;14.60;99.90;;;;;;5035734;28;20135;-80
2022/06/11 01:22:50;;;;;;;36.45;5.88;;;14.60;99.90;;;;;;5036441;28;20464;-81
2022/06/11 01:25:34;;;;;;;33.25;6.18;;;14.60;99.90;;;;;;5036736;28;20049;-80
2022/06/11 01:28:20;;;;;;;26.65;5.05;;;14.60;99.90;;;;;;5035309;28;20057;-80
2022/06/11 01:30:50;;;;;;;28.25;5.32;;;14.50;99.90;;;;;;5036073;28;20053;-80
2022/06/11 01:33:37;;;;;;;24.30;5.93;;;14.50;99.90;;;;;;5035126;28;20049;-80
2022/06/11 01:36:21;;;;;;;21.75;5.90;;;14.50;99.90;;;;;;5036636;28;20550;-80
2022/06/11 01:38:58;;;;;;;28.13;6.60;;;14.50;99.90;;;;;;5035846;28;20566;-81
2022/06/11 01:41:37;;;;;;;32.72;5.97;;;14.50;99.90;;;;;;5036455;28;20053;-80
2022/06/11 01:44:12;;;;;;;26.50;5.43;;;14.40;99.90;;;;;;5036195;28;20096;-81
2022/06/11 01:46:44;;;;;;;30.20;5.63;;;14.40;99.90;;;;;;5036328;28;20073;-81
2022/06/11 01:49:21;;;;;;;23.92;5.38;;;14.40;99.90;;;;;;5036182;28;20071;-81
2022/06/11 01:52:02;;;;;;;28.92;5.80;;;14.40;99.90;;;;;;5036182;28;20069;-81
2022/06/11 01:54:53;;;;;;;26.25;4.93;;;14.40;99.90;;;;;;5036196;28;20038;-81
2022/06/11 01:57:46;;;;;;;27.83;5.68;;;14.40;99.90;;;;;;5034964;28;20064;-81
2022/06/11 02:00:26;;;;;;;22.80;5.30;;;14.40;99.90;;;;;;5034534;28;20405;-81
2022/06/11 02:03:25;;;;;;;39.28;5.65;;;14.30;99.90;;;;;;5036006;28;20038;-81
2022/06/11 02:06:15;;;;;;;33.95;6.90;;;14.30;99.90;;;;;;5035867;28;20045;-81
2022/06/11 02:09:09;;;;;;;27.95;4.75;;;14.20;99.90;;;;;;5034675;28;20128;-81
2022/06/11 02:11:42;;;;;;;21.55;5.93;;;14.20;99.90;;;;;;5035833;28;20060;-81
2022/06/11 02:14:07;;;;;;;23.92;5.68;;;14.20;99.90;;;;;;5036117;28;20037;-81
2022/06/11 02:16:49;;;;;;;22.75;5.65;;;14.20;99.90;;;;;;5034434;28;20370;-81
2022/06/11 02:19:20;;;;;;;24.35;6.03;;;14.10;99.90;;;;;;5034243;28;20500;-81
2022/06/11 02:21:56;;;;;;;31.48;5.43;;;14.10;99.90;;;;;;5035632;28;20095;-81
2022/06/11 02:24:37;;;;;;;27.98;6.13;;;14.10;99.90;;;;;;5035066;28;20053;-80
2022/06/11 02:27:06;;;;;;;26.77;5.13;;;14.00;99.90;;;;;;5034330;28;20076;-81
2022/06/11 02:29:33;;;;;;;27.63;6.28;;;14.00;99.90;;;;;;5035417;28;20081;-80
2022/06/11 02:32:10;;;;;;;24.30;6.25;;;14.00;99.90;;;;;;5035241;28;20501;-80
2022/06/11 02:34:56;;;;;;;26.73;5.53;;;14.00;99.90;;;;;;5034336;28;20382;-80
2022/06/11 02:37:21;;;;;;;34.63;6.57;;;14.00;99.90;;;;;;5035552;28;20144;-80
2022/06/11 02:39:48;;;;;;;24.98;5.00;;;13.90;99.90;;;;;;5033799;28;20140;-80
2022/06/11 02:42:17;;;;;;;25.38;5.47;;;13.90;99.90;;;;;;5034061;28;20041;-81
2022/06/11 02:44:43;;;;;;;30.17;6.22;;;13.90;99.90;;;;;;5035309;28;20045;-80
2022/06/11 02:47:11;;;;;;;27.33;5.40;;;13.90;99.90;;;;;;5033788;28;20436;-80
2022/06/11 02:49:37;;;;;;;28.08;5.80;;;13.90;99.90;;;;;;5034019;28;20042;-81
2022/06/11 02:52:14;;;;;;;21.80;5.55;;;13.80;99.90;;;;;;5034903;28;20045;-80
2022/06/11 02:54:41;;;;;;;23.15;4.95;;;13.80;99.90;;;;;;5033333;28;20508;-80
2022/06/11 02:57:09;;;;;;;18.60;4.85;;;13.90;99.90;;;;;;5033603;28;20060;-79
2022/06/11 02:59:35;;;;;;;20.38;5.95;;;13.90;99.90;;;;;;5032791;28;20508;-79
2022/06/11 03:02:01;;;;;;;23.25;4.80;;;13.80;99.90;;;;;;5032955;28;20401;-80
2022/06/11 03:04:29;;;;;;;28.63;5.82;;;13.80;99.90;;;;;;5031775;28;20496;-80
2022/06/11 03:06:55;;;;;;;29.10;5.75;;;13.80;99.90;;;;;;5033196;28;20076;-80
2022/06/11 03:09:27;;;;;;;25.35;5.93;;;13.80;99.90;;;;;;5034611;28;20037;-80
2022/06/11 03:11:53;;;;;;;26.48;5.70;;;13.80;99.90;;;;;;5033361;28;20049;-80
2022/06/11 03:14:19;;;;;;;26.17;6.53;;;13.80;99.90;;;;;;5034542;28;20045;-80
2022/06/11 03:16:45;;;;;;;25.95;5.88;;;13.80;99.90;;;;;;5034213;28;20083;-80
2022/06/11 03:19:12;;;;;;;29.05;7.07;;;13.80;99.90;;;;;;5034209;28;20172;-80
2022/06/11 03:21:39;;;;;;;38.72;5.68;;;13.80;99.90;;;;;;5034284;28;20148;-80
2022/06/11 03:24:05;;;;;;;32.85;6.07;;;13.90;99.90;;;;;;5034311;28;20029;-80
2022/06/11 03:26:31;;;;;;;26.52;5.82;;;13.90;99.90;;;;;;5033248;28;20048;-81
2022/06/11 03:28:57;;;;;;;30.45;6.07;;;13.90;99.90;;;;;;5034169;28;20041;-80
2022/06/11 03:31:22;;;;;;;37.08;6.47;;;13.90;99.90;;;;;;5034211;28;20037;-81
2022/06/11 03:33:48;;;;;;;29.80;5.97;;;13.90;99.90;;;;;;5032700;28;20049;-81
2022/06/11 03:36:16;;;;;;;30.58;5.45;;;13.90;99.90;;;;;;5033432;28;20048;-80
2022/06/11 03:38:43;;;;;;;32.45;7.93;;;13.90;99.90;;;;;;5033839;28;20053;-80
2022/06/11 03:41:10;;;;;;;46.08;7.20;;;13.90;99.90;;;;;;5032608;28;20485;-80
2022/06/11 03:43:36;;;;;;;31.08;5.85;;;13.90;99.90;;;;;;5033748;28;20504;-80
2022/06/11 03:46:03;;;;;;;33.70;6.85;;;14.00;99.90;;;;;;5032798;28;20046;-80
2022/06/11 03:48:29;;;;;;;29.05;5.93;;;13.90;99.90;;;;;;5032818;28;20473;-80
2022/06/11 03:50:57;;;;;;;27.42;6.82;;;13.90;99.90;;;;;;5033939;28;20092;-80
2022/06/11 03:53:24;;;;;;;28.30;6.28;;;13.90;99.90;;;;;;5033844;28;20037;-80
2022/06/11 03:55:49;;;;;;;42.67;7.35;;;13.90;99.90;;;;;;5032204;28;20128;-81
2022/06/11 03:58:18;;;;;;;33.42;7.47;;;14.00;99.90;;;;;;5032653;28;20046;-80
2022/06/11 04:03:30;;;;;;;35.90;6.65;;;14.00;99.90;;;;;;5033671;28;20104;-80
2022/06/11 04:05:56;;;;;;;30.05;6.22;;;14.00;99.90;;;;;;5033556;28;20049;-80
2022/06/11 04:08:23;;;;;;;28.73;6.18;;;14.10;99.90;;;;;;5032282;28;20049;-80
2022/06/11 04:10:50;;;;;;;41.33;6.93;;;14.20;99.90;;;;;;5033348;28;20564;-80
2022/06/11 04:13:16;;;;;;;37.40;7.75;;;14.30;99.90;;;;;;5032432;28;20163;-80
2022/06/11 04:15:43;;;;;;;33.33;6.55;;;14.40;99.90;;;;;;5032450;28;20052;-80
2022/06/11 04:18:17;;;;;;;37.88;7.07;;;14.50;99.90;;;;;;5033478;28;20087;-80
2022/06/11 04:20:43;;;;;;;38.30;7.32;;;14.50;99.90;;;;;;5033542;28;20056;-80
2022/06/11 04:23:08;;;;;;;36.25;7.20;;;14.60;99.90;;;;;;5033524;28;20037;-80
2022/06/11 04:25:34;;;;;;;27.85;7.32;;;14.70;99.90;;;;;;5033253;28;20049;-80
2022/06/11 04:28:00;;;;;;;32.28;7.80;;;14.70;99.90;;;;;;5032188;28;20056;-80
2022/06/11 04:30:26;;;;;;;32.78;6.63;;;14.70;99.90;;;;;;5033557;28;20042;-80
2022/06/11 04:32:52;;;;;;;41.88;8.18;;;14.70;99.90;;;;;;5033140;28;20446;-80
2022/06/11 04:35:19;;;;;;;30.00;6.38;;;14.60;99.90;;;;;;5032052;28;20480;-80
2022/06/11 04:37:45;;;;;;;33.28;5.95;;;14.60;99.90;;;;;;5032032;28;20084;-80
2022/06/11 04:40:12;;;;;;;32.05;8.05;;;14.70;99.90;;;;;;5033152;28;20041;-80
2022/06/11 04:42:38;;;;;;;37.63;6.85;;;14.70;99.90;;;;;;5032089;28;20493;-80
2022/06/11 04:45:05;;;;;;;43.45;8.73;;;14.80;99.90;;;;;;5032004;28;20045;-81
2022/06/11 04:47:31;;;;;;;37.45;6.75;;;14.80;99.90;;;;;;5033933;28;20076;-80
2022/06/11 04:49:59;;;;;;;33.65;7.60;;;14.90;99.90;;;;;;5037211;28;20048;-80
2022/06/11 04:52:26;;;;;;;36.38;7.78;;;14.90;99.90;;;;;;5036971;28;20432;-80
2022/06/11 04:54:52;;;;;;;43.17;8.27;;;14.90;99.90;;;;;;5035662;28;20525;-81
2022/06/11 04:57:18;;;;;;;34.80;7.35;;;14.90;99.90;;;;;;5035714;28;20183;-80
2022/06/11 04:59:44;;;;;;;53.90;8.00;;;14.90;99.90;;;;;;5036964;28;20049;-80
2022/06/11 05:02:10;;;;;;;38.92;8.18;;;14.90;99.90;;;;;;5035777;28;20068;-81
2022/06/11 05:04:36;;;;;;;41.85;8.50;;;14.90;99.90;;;;;;5035886;28;20405;-81
2022/06/11 05:07:02;;;;;;;35.10;8.50;;;14.90;99.90;;;;;;5035400;28;20069;-81
2022/06/11 05:09:30;;;;;;;35.90;7.60;;;15.10;99.90;;;;;;5035426;28;20152;-81
2022/06/11 05:11:56;;;;;;;45.75;8.27;;;15.10;99.90;;;;;;5036580;28;20045;-81
2022/06/11 05:14:23;;;;;;;32.70;7.18;;;15.20;99.90;;;;;;5036748;28;20041;-81
2022/06/11 05:16:48;;;;;;;49.72;7.68;;;15.30;99.90;;;;;;5035543;28;20052;-81
2022/06/11 05:19:18;;;;;;;34.88;7.60;;;15.40;99.90;;;;;;5036325;28;20427;-81
2022/06/11 05:21:45;;;;;;;39.10;8.05;;;15.50;99.90;;;;;;5035144;28;20049;-81
2022/06/11 05:24:10;;;;;;;40.25;8.38;;;15.60;99.90;;;;;;5036652;28;20120;-81
2022/06/11 05:26:42;;;;;;;35.70;8.80;;;15.80;99.90;;;;;;5036621;28;20125;-81
2022/06/11 05:29:11;;;;;;;42.20;8.73;;;15.80;99.90;;;;;;5036274;28;20432;-81
2022/06/11 05:31:37;;;;;;;39.97;8.15;;;16.00;99.90;;;;;;5036348;28;20053;-80
2022/06/11 05:34:02;;;;;;;37.90;9.38;;;16.00;99.90;;;;;;5036470;28;20037;-80
2022/06/11 05:36:28;;;;;;;35.42;8.00;;;16.10;99.90;;;;;;5036381;28;20370;-81
2022/06/11 05:38:54;;;;;;;46.65;9.30;;;16.30;99.90;;;;;;5035923;28;20053;-81
2022/06/11 05:41:20;;;;;;;51.20;9.75;;;16.30;99.90;;;;;;5035076;28;20493;-81
2022/06/11 05:43:45;;;;;;;43.67;9.00;;;16.40;99.90;;;;;;5035087;28;20432;-81
2022/06/11 05:46:16;;;;;;;46.00;9.60;;;16.60;99.90;;;;;;5034992;28;20129;-80
2022/06/11 05:48:52;;;;;;;40.45;8.60;;;16.70;99.90;;;;;;5035937;28;20049;-81
2022/06/11 05:51:25;;;;;;;42.85;9.20;;;16.70;99.90;;;;;;5035053;28;20076;-81
2022/06/11 05:53:53;;;;;;;52.88;9.50;;;16.80;99.90;;;;;;5036361;28;20042;-81
2022/06/11 05:56:19;;;;;;;50.08;9.13;;;17.00;99.90;;;;;;5034692;28;20049;-81
2022/06/11 05:58:50;;;;;;;50.45;10.27;;;16.90;99.90;;;;;;5034266;28;20049;-81
2022/06/11 06:01:19;;;;;;;42.25;9.10;;;17.20;99.90;;;;;;5034188;28;20087;-82
2022/06/11 06:03:45;;;;;;;49.25;9.48;;;17.10;99.90;;;;;;5034716;28;20058;-81
2022/06/11 06:06:10;;;;;;;42.78;8.90;;;17.20;99.90;;;;;;5034578;28;20045;-81
2022/06/11 06:08:36;;;;;;;48.13;9.40;;;17.30;99.90;;;;;;5034599;28;20489;-81
2022/06/11 06:11:02;;;;;;;44.85;9.18;;;17.40;99.90;;;;;;5034231;28;20124;-80
2022/06/11 06:13:45;;;;;;;46.90;9.88;;;17.50;99.90;;;;;;5034197;28;20051;-81
2022/06/11 06:16:11;;;;;;;43.78;9.65;;;17.70;99.90;;;;;;5035467;28;20048;-80
2022/06/11 06:18:38;;;;;;;47.42;9.23;;;17.70;99.90;;;;;;5035958;28;20049;-80
2022/06/11 06:21:04;;;;;;;43.25;9.45;;;17.90;99.90;;;;;;5044187;28;20044;-80
2022/06/11 06:23:34;;;;;;;51.47;10.05;;;18.00;99.90;;;;;;5035120;28;20492;-80
2022/06/11 06:26:00;;;;;;;44.30;9.77;;;18.00;99.90;;;;;;5035351;28;20056;-81
2022/06/11 06:28:25;;;;;;;50.35;9.10;;;18.10;99.90;;;;;;5035047;28;20046;-80
2022/06/11 06:30:51;;;;;;;44.20;9.38;;;18.20;99.90;;;;;;5035204;28;20088;-81
2022/06/11 06:33:20;;;;;;;48.60;8.68;;;18.40;99.90;;;;;;5035162;28;20122;-82
2022/06/11 06:35:46;;;;;;;46.22;9.73;;;18.40;99.90;;;;;;5033609;28;20037;-80
2022/06/11 06:38:11;;;;;;;38.70;8.00;;;18.60;99.90;;;;;;5033362;28;20054;-80
2022/06/11 06:40:37;;;;;;;42.17;8.10;;;18.70;99.90;;;;;;5036868;28;20060;-82
2022/06/11 06:43:03;;;;;;;45.20;9.90;;;18.70;99.90;;;;;;5053246;28;20450;-81
2022/06/11 06:45:29;;;;;;;39.90;7.32;;;18.90;99.90;;;;;;5054536;28;20120;-81
2022/06/11 06:47:55;;;;;;;47.08;7.93;;;18.90;99.90;;;;;;5053370;28;20128;-81
2022/06/11 06:50:22;;;;;;;43.03;9.52;;;19.00;99.90;;;;;;5054687;28;20075;-81
2022/06/11 06:52:48;;;;;;;38.38;8.35;;;19.00;99.90;;;;;;5050207;28;20041;-81
2022/06/11 06:55:14;;;;;;;43.20;8.38;;;18.90;99.90;;;;;;5044869;28;20128;-82
2022/06/11 06:57:40;;;;;;;41.95;7.80;;;19.10;99.90;;;;;;5033192;28;20048;-81
2022/06/11 07:00:09;;;;;;;30.50;6.95;;;19.10;99.90;;;;;;5033093;28;20054;-81
2022/06/11 07:02:34;;;;;;;41.67;7.32;;;19.10;99.90;;;;;;5034482;28;20053;-81
2022/06/11 07:05:00;;;;;;;29.48;7.55;;;19.20;99.90;;;;;;5034367;28;20068;-81
2022/06/11 07:07:26;;;;;;;35.58;6.90;;;19.20;99.90;;;;;;5031638;28;20049;-81
2022/06/11 07:09:56;;;;;;;29.30;7.28;;;19.30;99.90;;;;;;5033205;28;20037;-80
2022/06/11 07:12:23;;;;;;;38.65;7.82;;;19.40;99.90;;;;;;5032241;28;20114;-81
2022/06/11 07:14:49;;;;;;;33.90;7.78;;;19.50;99.90;;;;;;5033635;28;20081;-81
2022/06/11 07:17:17;;;;;;;36.25;7.55;;;19.50;99.90;;;;;;5032976;28;20482;-82
2022/06/11 07:19:48;;;;;;;32.53;6.60;;;19.70;99.90;;;;;;5034208;28;20046;-82
2022/06/11 07:22:22;;;;;;;43.95;7.15;;;19.80;99.90;;;;;;5033865;28;20512;-81
2022/06/11 07:24:47;;;;;;;33.58;7.75;;;19.70;99.90;;;;;;5034347;28;20041;-82
2022/06/11 07:27:17;;;;;;;32.10;6.47;;;19.90;99.90;;;;;;5032903;28;20048;-81
2022/06/11 07:29:53;;;;;;;40.45;6.57;;;19.90;99.90;;;;;;5034259;28;20037;-81
2022/06/11 07:32:22;;;;;;;30.80;7.30;;;20.00;99.90;;;;;;5032793;28;20041;-81
2022/06/11 07:34:48;;;;;;;38.55;6.32;;;20.00;99.90;;;;;;5032962;28;20044;-81
2022/06/11 07:37:15;;;;;;;31.90;6.03;;;20.00;99.90;;;;;;5032689;28;20057;-81
2022/06/11 07:39:41;;;;;;;34.45;5.82;;;20.00;99.90;;;;;;5032600;28;20050;-81
2022/06/11 07:42:07;;;;;;;24.90;6.55;;;20.00;99.90;;;;;;5032915;28;20045;-81
2022/06/11 07:44:35;;;;;;;36.83;7.75;;;20.10;99.90;;;;;;5033942;28;20050;-81
2022/06/11 07:47:01;;;;;;;27.75;6.72;;;20.10;99.90;;;;;;5032603;28;20044;-81
2022/06/11 07:49:26;;;;;;;27.40;5.70;;;20.20;99.90;;;;;;5033719;28;20045;-81
2022/06/11 07:51:52;;;;;;;28.98;5.50;;;20.20;99.90;;;;;;5033598;28;20103;-81
2022/06/11 07:54:18;;;;;;;26.27;5.60;;;20.20;99.90;;;;;;5032530;28;20045;-81
2022/06/11 07:56:43;;;;;;;31.95;5.93;;;20.10;99.90;;;;;;5033747;28;20037;-81
2022/06/11 07:59:09;;;;;;;28.58;6.25;;;20.20;99.90;;;;;;5033750;28;20037;-81
2022/06/11 08:01:35;;;;;;;32.33;6.00;;;20.20;99.90;;;;;;5032688;28;20084;-81
2022/06/11 08:04:00;;;;;;;28.83;5.78;;;20.30;99.90;;;;;;5032296;28;20060;-81
2022/06/11 08:06:27;;;;;;;21.33;5.57;;;20.30;99.90;;;;;;5032446;28;20067;-81
2022/06/11 08:08:52;;;;;;;26.13;5.25;;;20.40;99.90;;;;;;5032223;28;20090;-81
2022/06/11 08:11:18;;;;;;;30.83;7.03;;;20.50;99.90;;;;;;5032259;28;20049;-81
2022/06/11 08:13:44;;;;;;;23.17;5.35;;;20.60;99.90;;;;;;5033384;28;20103;-81
2022/06/11 08:16:10;;;;;;;40.03;6.13;;;20.70;99.90;;;;;;5033431;28;20119;-81
2022/06/11 08:18:36;;;;;;;32.92;6.55;;;20.70;99.90;;;;;;5033579;28;20042;-81
2022/06/11 08:21:03;;;;;;;28.70;6.50;;;20.80;99.90;;;;;;5033264;28;20515;-81
2022/06/11 08:23:29;;;;;;;22.35;5.43;;;20.70;99.90;;;;;;5038069;28;20506;-81
2022/06/11 08:25:55;;;;;;;28.23;5.80;;;20.80;99.90;;;;;;5038935;28;20050;-81
2022/06/11 08:28:22;;;;;;;28.05;6.90;;;20.80;99.90;;;;;;5038886;28;20076;-81
2022/06/11 08:30:48;;;;;;;31.02;5.53;;;20.90;99.90;;;;;;5039929;28;20041;-81
2022/06/11 08:33:15;;;;;;;28.08;5.68;;;21.00;99.90;;;;;;5038836;28;20049;-81
2022/06/11 08:35:40;;;;;;;27.77;5.88;;;21.00;99.90;;;;;;5039810;28;20057;-81
2022/06/11 08:38:06;;;;;;;26.85;4.90;;;21.20;99.90;;;;;;5039623;28;20053;-81
2022/06/11 08:40:46;;;;;;;25.23;5.43;;;20.90;99.90;;;;;;5038761;28;20049;-81
2022/06/11 08:43:19;;;;;;;24.02;4.93;;;20.90;99.90;;;;;;5039959;28;20044;-81
2022/06/11 08:45:52;;;;;;;28.25;5.28;;;21.00;99.90;;;;;;5039697;28;20064;-81
2022/06/11 08:48:21;;;;;;;27.20;5.15;;;21.20;99.90;;;;;;5038559;28;20132;-81
2022/06/11 08:51:27;;;;;;;30.33;5.18;;;21.40;99.90;;;;;;5038509;28;20041;-81
2022/06/11 08:53:56;;;;;;;16.13;4.65;;;21.40;99.90;;;;;;5038689;28;20505;-81
2022/06/11 08:56:35;;;;;;;20.83;4.15;;;21.50;99.90;;;;;;5038341;28;20041;-81
2022/06/11 08:59:18;;;;;;;29.35;6.07;;;21.60;99.90;;;;;;5039725;28;20057;-81
2022/06/11 09:01:52;;;;;;;16.40;4.47;;;21.60;99.90;;;;;;5039869;28;20045;-81
2022/06/11 09:04:38;;;;;;;22.27;4.93;;;21.70;99.90;;;;;;5038374;28;20056;-82
2022/06/11 09:07:37;;;;;;;27.27;5.97;;;21.60;99.90;;;;;;5039794;28;20046;-81
2022/06/11 09:10:44;;;;;;;31.58;5.20;;;21.60;99.90;;;;;;5038470;28;20085;-82
2022/06/11 09:13:19;;;;;;;22.40;3.70;;;21.60;99.90;;;;;;5039004;28;20564;-81
2022/06/11 09:16:19;;;;;;;34.47;6.05;;;21.40;99.90;;;;;;5040050;28;20564;-82
2022/06/11 09:19:17;;;;;;;28.13;4.78;;;21.60;99.90;;;;;;5038132;28;20049;-87
2022/06/11 09:21:46;;;;;;;20.10;4.03;;;21.50;99.90;;;;;;5038539;28;20077;-87
2022/06/11 09:25:03;;;;;;;22.88;4.90;;;21.70;99.90;;;;;;5039397;28;20037;-88
2022/06/11 09:27:55;;;;;;;18.50;3.35;;;21.70;99.90;;;;;;5039676;28;20042;-84
2022/06/11 09:30:26;;;;;;;18.58;3.97;;;21.70;99.90;;;;;;5039355;28;20434;-81
2022/06/11 09:33:01;;;;;;;22.77;3.72;;;21.90;99.90;;;;;;5039630;28;20088;-81
2022/06/11 09:35:39;;;;;;;19.30;3.90;;;21.90;99.90;;;;;;5035744;28;20051;-81
2022/06/11 09:38:42;;;;;;;15.45;4.03;;;22.00;99.90;;;;;;5035783;28;20064;-81
2022/06/11 09:41:22;;;;;;;17.88;3.30;;;22.10;99.90;;;;;;5036413;28;20064;-84
2022/06/11 09:44:03;;;;;;;18.42;3.83;;;22.00;99.90;;;;;;5034907;28;20126;-81
2022/06/11 09:46:47;;;;;;;14.65;3.40;;;22.10;99.90;;;;;;5034957;28;20049;-81
2022/06/11 09:49:44;;;;;;;15.18;3.05;;;22.30;99.90;;;;;;5034822;28;20129;-82
2022/06/11 09:52:20;;;;;;;24.55;4.47;;;22.20;99.90;;;;;;5036150;28;20084;-82
2022/06/11 09:54:57;;;;;;;17.60;3.90;;;22.40;99.90;;;;;;5036076;28;20045;-82
2022/06/11 09:57:40;;;;;;;22.05;4.50;;;22.60;99.90;;;;;;5036148;28;20117;-81
2022/06/11 10:00:27;;;;;;;18.42;3.20;;;22.30;99.90;;;;;;5037625;28;20378;-85
2022/06/11 10:05:56;;;;;;;22.35;3.70;;;22.30;99.90;;;;;;5034315;28;20119;-81
2022/06/11 10:08:42;;;;;;;22.92;4.10;;;22.30;99.90;;;;;;5054858;28;20082;-81
2022/06/11 10:11:26;;;;;;;21.70;3.08;;;22.50;99.90;;;;;;5053982;28;20041;-81
2022/06/11 10:14:31;;;;;;;21.23;3.90;;;22.60;99.90;;;;;;5040790;28;20080;-81
2022/06/11 10:17:26;;;;;;;17.92;3.80;;;22.60;99.90;;;;;;5035288;28;20527;-81
2022/06/11 10:20:01;;;;;;;25.98;4.97;;;22.50;99.90;;;;;;5034001;28;20149;-82
2022/06/11 10:22:52;;;;;;;15.40;3.33;;;22.50;99.90;;;;;;5033816;28;20424;-82
2022/06/11 10:25:22;;;;;;;18.65;3.70;;;22.60;99.90;;;;;;5035172;28;20160;-82
2022/06/11 10:28:16;;;;;;;19.05;3.47;;;22.70;99.90;;;;;;5035142;28;20125;-82
2022/06/11 10:30:55;;;;;;;17.95;4.20;;;22.70;99.90;;;;;;5038312;28;20037;-82
2022/06/11 10:33:31;;;;;;;26.40;3.97;;;22.90;99.90;;;;;;5053934;28;20121;-82
2022/06/11 10:36:08;;;;;;;15.13;3.35;;;23.10;99.90;;;;;;5053585;28;20048;-81
2022/06/11 10:39:11;;;;;;;17.65;3.30;;;23.10;99.90;;;;;;5053225;28;20053;-82
2022/06/11 10:42:04;;;;;;;14.85;3.67;;;23.20;99.90;;;;;;5004169;28;20059;-82
2022/06/11 10:44:35;;;;;;;;;;;23.20;99.90;;;;;;5053869;28;20049;-81
2022/06/11 10:47:11;;;;;;;18.27;3.88;;;23.20;99.90;;;;;;5054073;28;19925;-82
2022/06/11 10:49:37;;;;;;;15.57;3.60;;;23.20;99.90;;;;;;5054824;28;20076;-82
2022/06/11 10:52:32;;;;;;;18.33;3.15;;;23.10;99.90;;;;;;5054472;28;20444;-82
2022/06/11 10:54:58;;;;;;;19.10;3.83;;;23.00;99.90;;;;;;5054468;28;20385;-82
2022/06/11 10:57:26;;;;;;;17.08;3.30;;;23.10;99.90;;;;;;5054250;28;20055;-81
2022/06/11 11:00:00;;;;;;;12.50;2.97;;;23.00;99.90;;;;;;5054259;28;20452;-80
2022/06/11 11:02:31;;;;;;;17.00;3.72;;;23.10;99.90;;;;;;5054474;28;20045;-81
2022/06/11 11:05:06;;;;;;;18.10;4.25;;;23.00;99.90;;;;;;5053001;28;20051;-81
2022/06/11 11:07:49;;;;;;;19.20;3.15;;;23.00;99.90;;;;;;5052241;28;20044;-81
2022/06/11 11:10:35;;;;;;;17.50;3.42;;;23.10;99.90;;;;;;5053215;28;20048;-82
2022/06/11 11:13:05;;;;;;;18.17;3.28;;;23.30;99.90;;;;;;5054294;28;20144;-81
2022/06/11 11:15:43;;;;;;;15.90;2.88;;;23.30;99.90;;;;;;5053152;28;20053;-79
2022/06/11 11:18:20;;;;;;;19.67;4.03;;;23.30;99.90;;;;;;5053264;28;20506;-81
2022/06/11 11:20:48;;;;;;;16.67;2.97;;;23.20;99.90;;;;;;5054110;28;20171;-81
2022/06/11 11:23:38;;;;;;;18.00;3.63;;;23.20;99.90;;;;;;5053978;28;20041;-81
2022/06/11 11:26:16;;;;;;;9.73;2.50;;;23.40;99.90;;;;;;5052874;28;20287;-81
2022/06/11 11:28:50;;;;;;;16.73;2.65;;;23.40;99.90;;;;;;5051904;28;20040;-85
2022/06/11 11:31:23;;;;;;;17.55;3.83;;;23.50;99.90;;;;;;5052844;28;20057;-93
2022/06/11 11:34:11;;;;;;;20.52;3.28;;;23.30;99.90;;;;;;5052529;28;20053;-90
2022/06/11 11:36:37;;;;;;;19.65;3.15;;;23.40;99.90;;;;;;5053715;28;20045;-86
2022/06/11 11:39:12;;;;;;;15.80;2.75;;;23.60;99.90;;;;;;5053346;28;20049;-88
2022/06/11 11:41:51;;;;;;;13.95;2.33;;;23.80;99.90;;;;;;5054008;28;20072;-88
2022/06/11 11:44:23;;;;;;;13.52;2.75;;;23.80;99.90;;;;;;5053654;28;20044;-91
2022/06/11 11:47:00;;;;;;;17.23;3.03;;;23.50;99.90;;;;;;5052555;28;20498;-93
2022/06/11 11:49:33;;;;;;;13.77;2.70;;;23.40;99.90;;;;;;5052375;28;20048;-90
2022/06/11 11:52:21;;;;;;;17.33;2.72;;;23.40;99.60;;;;;;5053728;28;20033;-83
2022/06/11 11:55:10;;;;;;;14.07;2.60;;;23.50;99.90;;;;;;5053799;28;20122;-90
2022/06/11 11:57:38;;;;;;;18.77;4.20;;;23.50;99.90;;;;;;5052495;28;20064;-94
2022/06/11 12:00:24;;;;;;;20.08;2.83;;;23.60;99.90;;;;;;5053758;28;20428;-95
2022/06/11 12:02:54;;;;;;;17.30;3.05;;;23.80;99.90;;;;;;5053681;28;20045;-90
2022/06/11 12:05:27;;;;;;;17.27;3.22;;;23.90;99.90;;;;;;5053445;28;20043;-86
2022/06/11 12:07:54;;;;;;;23.35;4.20;;;23.80;99.90;;;;;;5052098;28;20041;-87
2022/06/11 12:10:37;;;;;;;13.50;3.03;;;23.60;99.90;;;;;;5053729;28;20068;-85
2022/06/11 12:13:20;;;;;;;13.60;2.75;;;23.40;99.90;;;;;;5053316;28;20044;-87
2022/06/11 12:16:04;;;;;;;17.55;3.97;;;23.50;99.90;;;;;;5051834;28;20052;-86
2022/06/11 12:18:45;;;;;;;18.17;4.05;;;23.50;99.90;;;;;;5051904;28;20041;-85
2022/06/11 12:21:15;;;;;;;26.23;4.28;;;23.50;99.90;;;;;;5053061;28;20481;-84
2022/06/11 12:23:44;;;;;;;13.13;3.33;;;23.40;99.90;;;;;;5052095;28;20500;-84
2022/06/11 12:26:13;;;;;;;12.82;2.72;;;23.40;99.90;;;;;;5053089;28;20045;-85
2022/06/11 12:28:43;;;;;;;16.17;4.05;;;23.30;99.90;;;;;;5053328;28;20045;-80
2022/06/11 12:31:11;;;;;;;17.38;3.75;;;23.40;99.90;;;;;;5053212;28;20041;-82
2022/06/11 12:33:42;;;;;;;17.20;4.25;;;23.30;99.90;;;;;;5053345;28;20045;-84
2022/06/11 12:36:27;;;;;;;15.93;3.85;;;23.40;99.90;;;;;;5052968;28;20511;-85
2022/06/11 12:39:04;;;;;;;21.48;4.68;;;23.30;99.90;;;;;;5044660;28;20092;-83
2022/06/11 12:41:53;;;;;;;17.00;4.20;;;23.20;99.90;;;;;;5052945;28;20063;-91
2022/06/11 12:44:30;;;;;;;19.67;4.97;;;23.10;99.90;;;;;;5053417;28;20124;-88
2022/06/11 12:47:07;;;;;;;18.52;4.35;;;22.90;99.90;;;;;;5052828;28;20515;-84
2022/06/11 12:49:40;;;;;;;22.25;4.45;;;22.70;99.90;;;;;;5052793;28;20540;-82
2022/06/11 12:52:12;;;;;;;16.90;4.63;;;22.90;99.90;;;;;;5053127;28;20073;-86
2022/06/11 12:54:55;;;;;;;12.98;3.60;;;22.90;99.90;;;;;;5051912;28;20060;-85
2022/06/11 12:57:54;;;;;;;15.95;3.85;;;23.10;99.90;;;;;;5051591;28;20057;-83
2022/06/11 13:00:44;;;;;;;14.82;3.45;;;23.40;99.90;;;;;;5051471;28;20052;-81
2022/06/11 13:03:29;;;;;;;18.67;4.47;;;23.40;99.90;;;;;;5051742;28;20068;-88
2022/06/11 13:06:09;;;;;;;19.38;4.70;;;23.40;99.90;;;;;;5051766;28;20057;-81
2022/06/11 13:08:52;;;;;;;15.38;3.80;;;23.30;99.90;;;;;;5051592;28;20136;-81
2022/06/11 13:11:40;;;;;;;17.35;4.43;;;23.30;99.90;;;;;;5055394;28;20051;-81
2022/06/11 13:14:22;;;;;;;30.65;5.65;;;23.40;99.90;;;;;;5055378;28;20088;-80